createdAt,value
2019-01-02T00:02:51.101Z,100637.07
2019-01-02T00:05:21.555Z,100643.39
2019-01-02T00:07:53.702Z,100642.16
2019-01-02T00:10:45.726Z,100626.86
2019-01-02T00:13:16.177Z,100631.22
2019-01-02T00:15:47.054Z,100640.76
2019-01-02T00:18:17.543Z,100649.33
2019-01-02T00:20:48.323Z,100658.58
2019-01-02T00:23:19.257Z,100653.96
2019-01-02T00:25:49.727Z,100650.86
2019-01-02T00:28:41.346Z,100645.58
2019-01-02T00:31:33.326Z,100640.37
2019-01-02T00:34:04.166Z,100665.09
2019-01-02T00:36:34.608Z,100660.09
2019-01-02T00:39:24.877Z,100666.80
2019-01-02T00:41:55.346Z,100665.01
2019-01-02T00:44:26.243Z,100666.30
2019-01-02T00:46:56.689Z,100666.50
2019-01-02T00:49:27.517Z,100669.50
2019-01-02T00:51:58.358Z,100667.60
2019-01-02T00:54:29.193Z,100657.91
2019-01-02T00:57:00.039Z,100654.39
2019-01-02T00:59:30.506Z,100656.88
2019-01-02T01:02:00.959Z,100645.37
2019-01-02T01:04:31.951Z,100638.00
2019-01-02T01:07:02.780Z,100639.67
2019-01-02T01:09:33.267Z,100662.22
2019-01-02T01:12:03.712Z,100663.83
2019-01-02T01:14:34.161Z,100664.96
2019-01-02T01:17:04.644Z,100671.37
2019-01-02T01:19:54.561Z,100671.56
2019-01-02T01:22:46.201Z,100674.88
2019-01-02T01:25:16.657Z,100681.58
2019-01-02T01:27:47.456Z,100683.03
2019-01-02T01:30:39.398Z,100680.39
2019-01-02T01:33:31.021Z,100678.97
2019-01-02T01:36:01.514Z,100688.95
2019-01-02T01:38:51.428Z,100693.30
2019-01-02T01:41:41.383Z,100708.32
2019-01-02T01:47:20.690Z,100705.94
2019-01-02T01:50:10.662Z,100711.70
2019-01-02T01:53:00.618Z,100701.52
2019-01-02T01:55:31.062Z,100708.03
2019-01-02T01:58:22.720Z,100713.31
2019-01-02T02:00:53.929Z,100722.66
2019-01-02T02:03:24.421Z,100725.66
2019-01-02T02:05:55.131Z,100730.11
2019-01-02T02:08:47.112Z,100729.37
2019-01-02T02:11:19.280Z,100744.84
2019-01-02T02:14:09.304Z,100744.64
2019-01-02T02:16:39.754Z,100740.28
2019-01-02T02:19:10.373Z,100752.02
2019-01-02T02:21:40.840Z,100754.66
2019-01-02T02:24:51.322Z,100756.76
2019-01-02T02:27:22.161Z,100756.76
2019-01-02T02:29:52.609Z,100760.34
2019-01-02T02:32:23.054Z,100762.05
2019-01-02T02:34:53.681Z,100769.97
2019-01-02T02:37:43.598Z,100758.17
2019-01-02T02:40:14.909Z,100767.04
2019-01-02T02:42:45.358Z,100771.39
2019-01-02T02:45:37.010Z,100773.75
2019-01-02T02:48:28.622Z,100794.25
2019-01-02T02:51:20.258Z,100787.54
2019-01-02T02:54:12.266Z,100794.83
2019-01-02T02:57:03.926Z,100793.02
2019-01-02T02:59:34.405Z,100799.98
2019-01-02T03:02:26.372Z,100807.95
2019-01-02T03:04:56.822Z,100800.95
2019-01-02T03:07:48.483Z,100810.78
2019-01-02T03:10:40.089Z,100813.78
2019-01-02T03:13:50.893Z,100813.14
2019-01-02T03:16:42.506Z,100823.03
2019-01-02T03:19:34.158Z,100829.25
2019-01-02T03:22:26.129Z,100831.34
2019-01-02T03:25:17.784Z,100838.41
2019-01-02T03:28:09.385Z,100841.63
2019-01-02T03:31:01.031Z,100846.17
2019-01-02T03:33:52.947Z,100846.17
2019-01-02T03:36:23.420Z,100857.59
2019-01-02T03:38:54.249Z,100857.39
2019-01-02T03:41:24.694Z,100861.99
2019-01-02T03:43:55.162Z,100872.47
2019-01-02T03:46:25.601Z,100862.28
2019-01-02T03:48:56.037Z,100872.86
2019-01-02T03:51:26.504Z,100879.08
2019-01-02T03:53:56.945Z,100876.83
2019-01-02T03:56:46.772Z,100882.20
2019-01-02T03:59:17.557Z,100882.84
2019-01-02T04:01:48.381Z,100890.08
2019-01-02T04:04:20.556Z,100891.89
2019-01-02T04:06:51.353Z,100887.67
2019-01-02T04:09:21.841Z,100888.86
2019-01-02T04:11:52.621Z,100893.69
2019-01-02T04:14:23.075Z,100891.69
2019-01-02T04:16:53.544Z,100901.86
2019-01-02T04:19:23.987Z,100894.14
2019-01-02T04:21:54.836Z,100887.42
2019-01-02T04:24:25.277Z,100893.84
2019-01-02T04:26:55.713Z,100906.03
2019-01-02T04:29:26.181Z,100906.76
2019-01-02T04:31:56.976Z,100902.98
2019-01-02T04:34:27.462Z,100910.42
2019-01-02T04:36:57.904Z,100906.02
2019-01-02T04:39:48.270Z,100909.25
2019-01-02T04:42:18.873Z,100912.77
2019-01-02T04:44:49.324Z,100909.38
2019-01-02T04:47:19.796Z,100911.93
2019-01-02T04:49:50.601Z,100914.19
2019-01-02T04:52:21.076Z,100918.96
2019-01-02T04:55:10.398Z,100919.83
2019-01-02T04:57:41.572Z,100919.14
2019-01-02T05:00:36.024Z,100917.43
2019-01-02T05:03:06.508Z,100919.14
2019-01-02T05:05:37.279Z,100923.11
2019-01-02T05:08:07.888Z,100923.85
2019-01-02T05:10:38.361Z,100915.48
2019-01-02T05:13:09.147Z,100921.78
2019-01-02T05:15:39.668Z,100932.05
2019-01-02T05:18:10.111Z,100928.17
2019-01-02T05:20:40.548Z,100934.21
2019-01-02T05:23:11.009Z,100937.96
2019-01-02T05:25:41.901Z,100933.79
2019-01-02T05:28:12.721Z,100938.98
2019-01-02T05:30:45.361Z,100947.39
2019-01-02T05:33:16.264Z,100946.52
2019-01-02T05:35:46.734Z,100945.59
2019-01-02T05:38:17.174Z,100946.21
2019-01-02T05:40:48.274Z,100954.83
2019-01-02T05:43:18.715Z,100952.09
2019-01-02T05:45:49.542Z,100948.86
2019-01-02T05:48:39.313Z,100955.91
2019-01-02T05:51:09.763Z,100956.36
2019-01-02T05:53:40.266Z,100957.23
2019-01-02T05:56:10.708Z,100958.87
2019-01-02T05:59:00.666Z,100970.55
2019-01-02T06:01:31.147Z,100973.58
2019-01-02T06:04:03.301Z,100971.16
2019-01-02T06:06:52.715Z,100974.94
2019-01-02T06:09:23.161Z,100976.48
2019-01-02T06:12:12.608Z,100978.37
2019-01-02T06:14:43.059Z,100984.40
2019-01-02T06:17:13.803Z,100989.15
2019-01-02T06:19:44.274Z,100989.54
2019-01-02T06:22:15.074Z,100990.59
2019-01-02T06:24:45.947Z,100994.73
2019-01-02T06:27:16.394Z,100995.48
2019-01-02T06:29:46.837Z,100992.39
2019-01-02T06:32:17.317Z,101004.13
2019-01-02T06:35:26.605Z,101012.36
2019-01-02T06:37:57.048Z,101010.71
2019-01-02T06:40:27.491Z,101007.07
2019-01-02T06:42:58.317Z,101011.78
2019-01-02T06:45:28.762Z,101021.60
2019-01-02T06:47:59.241Z,101027.76
2019-01-02T06:50:29.683Z,101029.20
2019-01-02T06:53:00.133Z,101040.70
2019-01-02T06:55:30.896Z,101045.02
2019-01-02T06:58:01.329Z,101041.06
2019-01-02T07:00:34.619Z,101051.41
2019-01-02T07:03:05.083Z,101055.20
2019-01-02T07:05:35.664Z,101068.67
2019-01-02T07:08:25.574Z,101069.64
2019-01-02T07:10:56.362Z,101077.56
2019-01-02T07:13:26.815Z,101077.87
2019-01-02T07:15:57.262Z,101084.42
2019-01-02T07:18:27.730Z,101079.77
2019-01-02T07:21:17.649Z,101092.09
2019-01-02T07:24:07.926Z,101093.67
2019-01-02T07:26:38.378Z,101104.16
2019-01-02T07:29:08.820Z,101103.62
2019-01-02T07:31:39.688Z,101105.47
2019-01-02T07:34:36.023Z,101114.81
2019-01-02T07:37:44.484Z,101114.81
2019-01-02T07:40:52.906Z,101122.56
2019-01-02T07:44:01.413Z,101133.35
2019-01-02T07:47:29.582Z,101140.12
2019-01-02T07:50:28.260Z,101152.32
2019-01-02T07:53:36.726Z,101154.48
2019-01-02T07:56:45.230Z,101153.25
2019-01-02T07:59:53.648Z,101156.51
2019-01-02T08:03:02.159Z,101168.56
2019-01-02T08:05:54.438Z,101171.97
2019-01-02T08:09:04.589Z,101181.55
2019-01-02T08:12:13.009Z,101176.96
2019-01-02T08:15:21.529Z,101182.17
2019-01-02T08:18:35.079Z,101193.89
2019-01-02T08:21:43.559Z,101192.87
2019-01-02T08:24:51.983Z,101196.98
2019-01-02T08:28:06.021Z,101196.05
2019-01-02T08:31:00.894Z,101200.50
2019-01-02T08:34:09.355Z,101206.01
2019-01-02T08:37:03.049Z,101220.14
2019-01-02T08:40:11.518Z,101222.17
2019-01-02T08:43:19.982Z,101223.81
2019-01-02T08:46:24.490Z,101231.03
2019-01-02T08:49:46.442Z,101228.16
2019-01-02T08:52:54.918Z,101242.75
2019-01-02T08:55:49.943Z,101251.08
2019-01-02T08:58:47.418Z,101238.96
2019-01-02T09:01:38.530Z,101260.86
2019-01-02T09:04:41.605Z,101259.72
2019-01-02T09:07:56.828Z,101265.46
2019-01-02T09:10:49.150Z,101272.77
2019-01-02T09:14:08.608Z,101280.94
2019-01-02T09:17:19.947Z,101283.09
2019-01-02T09:20:23.620Z,101295.70
2019-01-02T09:23:28.178Z,101298.66
2019-01-02T09:27:00.919Z,101305.09
2019-01-02T09:30:10.862Z,101310.53
2019-01-02T09:33:22.656Z,101313.82
2019-01-02T09:36:49.394Z,101317.53
2019-01-02T09:40:24.907Z,101318.24
2019-01-02T09:43:24.366Z,101333.58
2019-01-02T09:46:31.216Z,101327.33
2019-01-02T09:49:18.525Z,101335.27
2019-01-02T09:52:37.898Z,101337.38
2019-01-02T09:55:47.721Z,101341.48
2019-01-02T09:59:10.853Z,101342.11
2019-01-02T10:02:20.263Z,101352.29
2019-01-02T10:05:33.603Z,101351.19
2019-01-02T10:08:46.771Z,101354.63
2019-01-02T10:11:25.020Z,101358.91
2019-01-02T10:14:36.741Z,101364.20
2019-01-02T10:17:38.334Z,101354.85
2019-01-02T10:20:43.977Z,101364.67
2019-01-02T10:23:41.893Z,101359.66
2019-01-02T10:26:53.436Z,101367.74
2019-01-02T10:30:10.943Z,101368.53
2019-01-02T10:33:22.358Z,101374.66
2019-01-02T10:37:00.850Z,101378.35
2019-01-02T10:40:18.220Z,101376.41
2019-01-02T10:43:16.629Z,101385.80
2019-01-02T10:46:23.796Z,101387.83
2019-01-02T10:49:23.038Z,101390.69
2019-01-02T10:52:33.088Z,101389.49
2019-01-02T10:55:31.773Z,101389.17
2019-01-02T10:58:37.279Z,101388.57
2019-01-02T11:01:50.418Z,101397.45
2019-01-02T11:04:56.345Z,101390.66
2019-01-02T11:08:13.485Z,101397.13
2019-01-02T11:11:10.397Z,101390.95
2019-01-02T11:14:09.464Z,101389.05
2019-01-02T11:17:26.604Z,101400.23
2019-01-02T11:20:49.639Z,101399.89
2019-01-02T11:24:27.845Z,101400.41
2019-01-02T11:27:37.624Z,101407.19
2019-01-02T11:30:42.845Z,101392.84
2019-01-02T11:33:53.148Z,101404.67
2019-01-02T11:37:16.421Z,101404.59
2019-01-02T11:40:39.545Z,101397.81
2019-01-02T11:44:03.204Z,101403.41
2019-01-02T11:46:33.954Z,101393.23
2019-01-02T11:49:04.467Z,101405.16
2019-01-02T11:51:34.926Z,101411.22
2019-01-02T11:54:05.681Z,101400.55
2019-01-02T11:56:36.466Z,101408.80
2019-01-02T11:59:06.923Z,101410.48
2019-01-02T12:01:37.445Z,101413.34
2019-01-02T12:04:08.053Z,101426.19
2019-01-02T12:06:38.527Z,101425.34
2019-01-02T12:09:09.990Z,101422.72
2019-01-02T12:11:40.734Z,101425.52
2019-01-02T12:14:11.240Z,101427.34
2019-01-02T12:16:41.699Z,101420.92
2019-01-02T12:19:12.148Z,101423.73
2019-01-02T12:21:42.654Z,101423.50
2019-01-02T12:24:13.071Z,101426.91
2019-01-02T12:26:43.567Z,101433.41
2019-01-02T12:29:14.009Z,101431.77
2019-01-02T12:31:44.460Z,101436.04
2019-01-02T12:34:15.228Z,101434.63
2019-01-02T12:36:45.671Z,101440.68
2019-01-02T12:39:16.161Z,101438.75
2019-01-02T12:41:46.920Z,101448.41
2019-01-02T12:44:17.670Z,101457.94
2019-01-02T12:46:48.143Z,101450.53
2019-01-02T12:49:18.901Z,101452.96
2019-01-02T12:51:49.697Z,101456.05
2019-01-02T12:54:20.438Z,101450.20
2019-01-02T12:56:50.918Z,101456.11
2019-01-02T12:59:28.604Z,101449.85
2019-01-02T13:02:32.965Z,101458.83
2019-01-02T13:05:47.226Z,101459.93
2019-01-02T13:09:06.702Z,101465.32
2019-01-02T13:12:01.539Z,101468.90
2019-01-02T13:15:07.081Z,101472.20
2019-01-02T13:18:07.053Z,101476.50
2019-01-02T13:21:14.752Z,101478.77
2019-01-02T13:24:15.914Z,101493.81
2019-01-02T13:27:39.410Z,101491.90
2019-01-02T13:30:49.981Z,101494.06
2019-01-02T13:33:52.570Z,101488.62
2019-01-02T13:36:52.566Z,101490.66
2019-01-02T13:39:50.282Z,101498.37
2019-01-02T13:42:46.294Z,101496.38
2019-01-02T13:45:47.746Z,101508.29
2019-01-02T13:48:58.047Z,101498.53
2019-01-02T13:51:37.292Z,101519.14
2019-01-02T13:54:07.935Z,101514.78
2019-01-02T13:56:39.297Z,101518.53
2019-01-02T13:59:09.741Z,101521.61
2019-01-02T14:01:40.233Z,101526.10
2019-01-02T14:04:11.206Z,101525.98
2019-01-02T14:06:41.685Z,101533.37
2019-01-02T14:09:12.191Z,101533.41
2019-01-02T14:11:42.807Z,101527.08
2019-01-02T14:14:13.262Z,101541.09
2019-01-02T14:16:43.829Z,101540.55
2019-01-02T14:19:14.286Z,101542.27
2019-01-02T14:21:44.722Z,101539.78
2019-01-02T14:24:15.204Z,101544.70
2019-01-02T14:26:45.645Z,101541.87
2019-01-02T14:29:16.146Z,101550.38
2019-01-02T14:31:46.860Z,101541.95
2019-01-02T14:34:17.309Z,101544.37
2019-01-02T14:36:48.163Z,101544.05
2019-01-02T14:39:18.911Z,101541.11
2019-01-02T14:41:49.399Z,101546.17
2019-01-02T14:44:19.850Z,101556.22
2019-01-02T14:46:50.763Z,101555.79
2019-01-02T14:49:21.251Z,101563.41
2019-01-02T14:51:51.709Z,101558.89
2019-01-02T14:54:22.196Z,101563.70
2019-01-02T14:56:54.909Z,101564.70
2019-01-02T14:59:25.357Z,101571.32
2019-01-02T15:01:55.899Z,101590.60
2019-01-02T15:04:26.933Z,101582.50
2019-01-02T15:06:57.757Z,101592.64
2019-01-02T15:09:28.513Z,101589.59
2019-01-02T15:11:59.255Z,101593.64
2019-01-02T15:14:30.323Z,101597.34
2019-01-02T15:17:00.769Z,101602.86
2019-01-02T15:19:31.260Z,101604.86
2019-01-02T15:22:04.876Z,101608.42
2019-01-02T15:24:33.851Z,101612.06
2019-01-02T15:27:04.321Z,101612.22
2019-01-02T15:29:35.057Z,101619.03
2019-01-02T15:32:05.534Z,101619.17
2019-01-02T15:34:35.981Z,101616.34
2019-01-02T15:37:06.531Z,101616.34
2019-01-02T15:39:36.972Z,101620.67
2019-01-02T15:42:07.714Z,101617.13
2019-01-02T15:44:38.756Z,101621.59
2019-01-02T15:47:09.211Z,101615.38
2019-01-02T15:49:39.704Z,101630.44
2019-01-02T15:52:10.441Z,101630.11
2019-01-02T15:54:41.497Z,101635.95
2019-01-02T15:57:12.282Z,101639.84
2019-01-02T15:59:43.044Z,101643.55
2019-01-02T16:02:13.810Z,101645.80
2019-01-02T16:04:44.267Z,101642.89
2019-01-02T16:07:15.038Z,101650.16
2019-01-02T16:09:45.506Z,101653.21
2019-01-02T16:12:15.957Z,101660.03
2019-01-02T16:14:46.453Z,101661.80
2019-01-02T16:17:16.945Z,101669.05
2019-01-02T16:19:47.346Z,101667.62
2019-01-02T16:22:23.991Z,101672.83
2019-01-02T16:24:54.428Z,101674.16
2019-01-02T16:27:24.925Z,101674.66
2019-01-02T16:29:55.365Z,101679.09
2019-01-02T16:32:25.805Z,101687.20
2019-01-02T16:34:56.269Z,101687.48
2019-01-02T16:37:26.717Z,101693.92
2019-01-02T16:39:57.368Z,101698.22
2019-01-02T16:42:27.821Z,101701.27
2019-01-02T16:44:58.551Z,101702.41
2019-01-02T16:47:29.022Z,101710.03
2019-01-02T16:49:59.757Z,101713.94
2019-01-02T16:52:30.543Z,101720.30
2019-01-02T16:55:00.990Z,101715.66
2019-01-02T16:57:31.724Z,101722.91
2019-01-02T17:00:02.535Z,101731.80
2019-01-02T17:02:32.967Z,101725.27
2019-01-02T17:05:04.017Z,101733.19
2019-01-02T17:22:44.816Z,101740.53
2019-01-02T17:25:15.331Z,101743.27
2019-01-02T17:27:45.763Z,101747.35
2019-01-02T17:30:16.484Z,101746.81
2019-01-02T17:32:46.944Z,101747.45
2019-01-02T17:35:17.670Z,101756.93
2019-01-02T17:37:48.459Z,101752.02
2019-01-02T17:40:18.909Z,101754.81
2019-01-02T17:42:49.344Z,101763.64
2019-01-02T17:45:22.045Z,101764.67
2019-01-02T17:47:52.485Z,101766.75
2019-01-02T17:50:23.210Z,101762.10
2019-01-02T17:52:53.688Z,101771.12
2019-01-02T17:55:24.122Z,101770.08
2019-01-02T17:57:54.725Z,101774.31
2019-01-02T18:00:25.504Z,101768.89
2019-01-02T18:02:55.936Z,101776.39
2019-01-02T18:05:26.395Z,101776.95
2019-01-02T18:07:57.492Z,101773.41
2019-01-02T18:10:27.955Z,101774.86
2019-01-02T18:12:58.393Z,101779.19
2019-01-02T18:15:28.883Z,101779.81
2019-01-02T18:17:59.686Z,101778.97
2019-01-02T18:20:30.117Z,101782.02
2019-01-02T18:23:01.180Z,101785.97
2019-01-02T18:25:31.613Z,101790.33
2019-01-02T18:28:02.339Z,101791.64
2019-01-02T18:30:32.823Z,101796.51
2019-01-02T18:33:04.203Z,101799.42
2019-01-02T18:35:34.932Z,101803.52
2019-01-02T18:38:05.683Z,101805.84
2019-01-02T18:40:37.063Z,101814.04
2019-01-02T18:43:07.553Z,101806.22
2019-01-02T18:45:37.990Z,101807.53
2019-01-02T18:48:08.417Z,101817.91
2019-01-02T18:50:39.168Z,101821.13
2019-01-02T18:53:09.604Z,101823.68
2019-01-02T18:55:40.076Z,101821.39
2019-01-02T18:58:10.516Z,101816.30
2019-01-02T19:00:41.240Z,101822.06
2019-01-02T19:03:11.991Z,101820.55
2019-01-02T19:05:42.717Z,101819.99
2019-01-02T19:08:13.484Z,101822.89
2019-01-02T19:10:44.254Z,101827.92
2019-01-02T19:13:15.264Z,101828.39
2019-01-02T19:15:45.724Z,101831.59
2019-01-02T19:18:16.449Z,101829.42
2019-01-02T19:20:46.923Z,101830.68
2019-01-02T19:23:17.349Z,101824.70
2019-01-02T19:25:47.783Z,101836.68
2019-01-02T19:28:18.257Z,101840.41
2019-01-02T19:30:48.689Z,101837.03
2019-01-02T19:33:19.455Z,101844.83
2019-01-02T19:35:49.888Z,101841.13
2019-01-02T19:38:20.326Z,101846.14
2019-01-02T19:40:51.086Z,101849.34
2019-01-02T19:43:22.182Z,101853.70
2019-01-02T19:45:53.129Z,101849.64
2019-01-02T19:48:23.563Z,101846.63
2019-01-02T19:50:54.169Z,101863.65
2019-01-02T19:53:24.626Z,101857.00
2019-01-02T19:55:55.071Z,101862.69
2019-01-02T19:58:25.701Z,101854.37
2019-01-02T20:00:56.417Z,101861.78
2019-01-02T20:03:26.867Z,101852.28
2019-01-02T20:05:57.615Z,101852.95
2019-01-02T20:08:28.079Z,101853.77
2019-01-02T20:10:58.553Z,101852.05
2019-01-02T20:13:28.991Z,101850.17
2019-01-02T20:15:59.723Z,101848.86
2019-01-02T20:18:30.486Z,101857.67
2019-01-02T20:21:00.917Z,101857.81
2019-01-02T20:23:31.399Z,101854.44
2019-01-02T20:26:02.128Z,101856.66
2019-01-02T20:28:32.560Z,101857.45
2019-01-02T20:31:03.022Z,101856.41
2019-01-02T20:33:33.748Z,101856.14
2019-01-02T20:36:04.208Z,101858.64
2019-01-02T20:38:34.684Z,101856.00
2019-01-02T20:41:05.214Z,101853.56
2019-01-02T20:43:35.636Z,101846.02
2019-01-02T20:46:06.073Z,101845.34
2019-01-02T20:48:36.552Z,101846.96
2019-01-02T20:51:06.994Z,101842.47
2019-01-02T20:53:37.426Z,101842.36
2019-01-02T20:56:07.922Z,101839.50
2019-01-02T20:58:38.381Z,101839.91
2019-01-02T21:01:09.409Z,101843.86
2019-01-02T21:03:39.955Z,101831.95
2019-01-02T21:06:10.417Z,101842.59
2019-01-02T21:08:41.138Z,101838.46
2019-01-02T21:11:11.625Z,101844.38
2019-01-02T21:13:42.103Z,101843.78
2019-01-02T21:16:12.535Z,101835.05
2019-01-02T21:18:43.005Z,101841.03
2019-01-02T21:21:13.433Z,101844.98
2019-01-02T21:23:43.885Z,101844.92
2019-01-02T21:26:14.372Z,101845.58
2019-01-02T21:28:45.568Z,101842.84
2019-01-02T21:31:16.065Z,101841.27
2019-01-02T21:33:46.544Z,101843.95
2019-01-02T21:36:16.980Z,101834.73
2019-01-02T21:38:47.415Z,101841.68
2019-01-02T21:41:19.360Z,101846.77
2019-01-02T21:43:50.536Z,101847.97
2019-01-02T21:46:20.986Z,101844.67
2019-01-02T21:48:51.468Z,101842.97
2019-01-02T21:51:22.197Z,101852.55
2019-01-02T21:53:52.924Z,101854.20
2019-01-02T21:56:23.413Z,101852.86
2019-01-02T21:58:53.846Z,101855.48
2019-01-02T22:01:24.301Z,101855.36
2019-01-02T22:03:54.785Z,101851.63
2019-01-02T22:06:25.269Z,101851.17
2019-01-02T22:08:55.692Z,101850.37
2019-01-02T22:11:26.477Z,101849.05
2019-01-02T22:13:57.202Z,101849.85
2019-01-02T22:16:27.636Z,101847.81
2019-01-02T22:18:58.692Z,101846.59
2019-01-02T22:21:29.707Z,101837.33
2019-01-02T22:24:00.136Z,101843.66
2019-01-02T22:26:30.911Z,101844.97
2019-01-02T22:29:01.641Z,101844.66
2019-01-02T22:31:32.367Z,101843.44
2019-01-02T22:34:03.138Z,101833.35
2019-01-02T22:36:33.574Z,101828.24
2019-01-02T22:39:06.003Z,101832.91
2019-01-02T22:41:36.484Z,101834.30
2019-01-02T22:44:06.917Z,101828.97
2019-01-02T22:46:37.642Z,101830.41
2019-01-02T22:49:08.116Z,101833.57
2019-01-02T22:51:38.551Z,101836.62
2019-01-02T22:54:08.980Z,101831.45
2019-01-02T22:56:39.459Z,101835.20
2019-01-02T22:59:09.900Z,101836.98
2019-01-02T23:01:45.512Z,101828.89
2019-01-02T23:04:53.143Z,101826.20
2019-01-02T23:07:41.177Z,101829.26
2019-01-02T23:10:36.426Z,101828.77
2019-01-02T23:13:17.668Z,101837.16
2019-01-02T23:16:16.212Z,101832.45
2019-01-02T23:19:04.407Z,101830.21
2019-01-02T23:21:45.938Z,101827.09
2019-01-02T23:24:34.026Z,101830.19
2019-01-02T23:27:29.918Z,101830.26
2019-01-02T23:30:18.081Z,101833.72
2019-01-02T23:33:03.417Z,101836.25
2019-01-02T23:35:58.579Z,101832.36
2019-01-02T23:38:48.022Z,101839.71
2019-01-02T23:41:41.053Z,101845.29
2019-01-02T23:44:48.353Z,101852.03
2019-01-02T23:47:44.061Z,101859.44
2019-01-02T23:50:32.322Z,101866.55
2019-01-02T23:53:39.996Z,101865.45
2019-01-02T23:56:27.816Z,101868.06
2019-01-02T23:59:29.521Z,101869.45
